Des Moines, IA

3:54 PM CDT on September 27, 2016 (GMT -0500)
Witmer Park | | Change Station

Elev 892 ft 41.61 °N, 93.66 °W | Updated 6 seconds ago

Partly Cloudy
Partly Cloudy
75.9 °F
Feels Like 78 °F
N
0.9
Wind Variable Wind from NW
Gusts 1.0 mph

Today
High -- | Low -- °F
--% Chance of Precip.
Yesterday
High -- | Low -- °F
Precip. -- in
Pressure 29.84 in
Visibility 10.0 miles
Clouds Few 6000 ft
Heat Index 78 °F
Dew Point 46 °F
Humidity 35%
Rainfall 0.00 in
Snow Depth Not available.
7:07 AM 7:02 PM
Waning Crescent, 9% visible
METAR KDSM 271954Z 28019G24KT 10SM FEW060 24/05 A2985 RMK AO2 SLP103 T02440050
Pressure 29.84 in
Visibility 10.0 miles
Clouds Few 6000 ft
Heat Index 78 °F
Dew Point 46 °F
Humidity 35%
Rainfall 0.00 in
Snow Depth Not available.
7:07 AM 7:02 PM
Waning Crescent, 9% visible
METAR KDSM 271954Z 28019G24KT 10SM FEW060 24/05 A2985 RMK AO2 SLP103 T02440050

10-Day Weather Forecast

Almanac

Astronomy

Sep. 27, 2016 Rise Set
Actual Time
Civil Twilight
Nautical Twilight
Astronomical Twilight
Moon
Length of Visible Light
Length of Day
Tomorrow will be .
, % of the Moon is Illuminated

Today's Extremes

State Highs State Lows

Community

WunderPhotos

Upload Photos

1,942,168 photos uploaded!

WunderBlog® & News

Nearby

Air Quality

  Air Quality AQ Index Pollutant
Not available.

Snow Depth

Station Depth Elevation

Earthquake Activity

City Distance Mag. Time & Date
Minimum magnitude displayed is 2.5.

Coastal Water Temperatures

Place Temperature

Stations

Nearby Weather Stations

Station Location Temp. Windchill Dew Point Humidity Wind Precip. Elev Updated Type
                   

Watches & Warnings

There are currently no watches in effect.